createdAt,value
2018-12-19T00:00:16.863Z,3.9
2018-12-19T00:01:16.963Z,0
2018-12-19T00:02:16.815Z,3.9
2018-12-19T00:03:16.842Z,1.8
2018-12-19T00:04:16.934Z,0
2018-12-19T00:05:16.865Z,3.9
2018-12-19T00:06:16.872Z,1.8
2018-12-19T00:07:16.888Z,6.6
2018-12-19T00:08:16.897Z,6.6
2018-12-19T00:09:16.932Z,6.6
2018-12-19T00:10:16.889Z,6.6
2018-12-19T00:11:16.882Z,6.6
2018-12-19T00:12:16.875Z,6.6
2018-12-19T00:13:16.878Z,3.9
2018-12-19T00:14:16.880Z,3.9
2018-12-19T00:15:16.872Z,1.8
2018-12-19T00:16:16.845Z,3.9
2018-12-19T00:17:16.941Z,3.9
2018-12-19T00:18:16.823Z,3.9
2018-12-19T00:19:16.841Z,12.4
2018-12-19T00:20:16.873Z,9.5
2018-12-19T00:21:16.851Z,9.5
2018-12-19T00:22:16.935Z,1.8
2018-12-19T00:23:16.844Z,9.5
2018-12-19T00:24:16.896Z,6.6
2018-12-19T00:25:16.875Z,3.9
2018-12-19T00:26:16.855Z,9.5
2018-12-19T00:27:16.882Z,3.9
2018-12-19T00:28:16.908Z,3.9
2018-12-19T00:29:16.958Z,3.9
2018-12-19T00:30:16.910Z,9.5
2018-12-19T00:31:16.852Z,3.9
2018-12-19T00:32:16.945Z,3.9
2018-12-19T00:33:16.873Z,6.6
2018-12-19T00:34:16.844Z,3.9
2018-12-19T00:35:16.859Z,12.4
2018-12-19T00:36:16.852Z,1.8
2018-12-19T00:37:16.861Z,3.9
2018-12-19T00:38:16.854Z,0
2018-12-19T00:39:18.468Z,6.6
2018-12-19T00:40:16.872Z,6.6
2018-12-19T00:41:16.880Z,0
2018-12-19T00:42:16.844Z,1.8
2018-12-19T00:43:16.902Z,0
2018-12-19T00:44:16.842Z,1.8
2018-12-19T00:45:16.959Z,3.9
2018-12-19T00:46:16.809Z,1.8
2018-12-19T00:47:16.851Z,3.9
2018-12-19T00:48:16.856Z,1.8
2018-12-19T00:49:16.786Z,3.9
2018-12-19T00:50:16.838Z,3.9
2018-12-19T00:51:16.741Z,3.9
2018-12-19T00:52:16.746Z,9.5
2018-12-19T00:53:16.775Z,6.6
2018-12-19T00:54:16.777Z,12.4
2018-12-19T00:55:16.843Z,9.5
2018-12-19T00:56:16.784Z,6.6
2018-12-19T00:57:16.784Z,6.6
2018-12-19T00:58:16.836Z,12.4
2018-12-19T00:59:16.781Z,6.6
2018-12-19T01:00:16.760Z,6.6
2018-12-19T01:01:16.799Z,6.6
2018-12-19T01:02:16.817Z,9.5
2018-12-19T01:03:16.781Z,6.6
2018-12-19T01:04:16.785Z,6.6
2018-12-19T01:05:16.776Z,12.4
2018-12-19T01:06:16.837Z,3.9
2018-12-19T01:07:16.787Z,15.4
2018-12-19T01:08:16.794Z,3.9
2018-12-19T01:09:18.376Z,3.9
2018-12-19T01:10:16.762Z,6.6
2018-12-19T01:11:16.781Z,9.5
2018-12-19T01:12:16.805Z,6.6
2018-12-19T01:13:16.710Z,6.6
2018-12-19T01:14:16.816Z,3.9
2018-12-19T01:15:16.795Z,6.6
2018-12-19T01:16:16.770Z,12.4
2018-12-19T01:17:16.804Z,3.9
2018-12-19T01:18:16.724Z,6.6
2018-12-19T01:19:16.712Z,6.6
2018-12-19T01:20:16.754Z,0
2018-12-19T01:21:16.834Z,0
2018-12-19T01:22:16.760Z,3.9
2018-12-19T01:23:16.765Z,1.8
2018-12-19T01:24:16.793Z,1.8
2018-12-19T01:25:16.767Z,0
2018-12-19T01:26:16.815Z,0
2018-12-19T01:27:16.772Z,0
2018-12-19T01:28:16.765Z,0
2018-12-19T01:29:16.785Z,0
2018-12-19T01:30:16.723Z,0
2018-12-19T01:31:16.767Z,0
2018-12-19T01:32:16.852Z,0
2018-12-19T01:33:16.751Z,0
2018-12-19T01:34:16.762Z,0
2018-12-19T01:35:16.713Z,0
2018-12-19T01:36:16.828Z,0
2018-12-19T01:37:16.782Z,0
2018-12-19T01:38:16.756Z,0
2018-12-19T01:39:22.318Z,6.6
2018-12-19T01:40:16.783Z,1.8
2018-12-19T01:41:16.836Z,1.8
2018-12-19T01:42:16.832Z,0
2018-12-19T01:43:16.743Z,0
2018-12-19T01:44:16.750Z,0
2018-12-19T01:45:16.747Z,1.8
2018-12-19T01:46:16.728Z,3.9
2018-12-19T01:47:16.824Z,1.8
2018-12-19T01:48:16.760Z,3.9
2018-12-19T01:49:16.754Z,3.9
2018-12-19T01:50:16.851Z,1.8
2018-12-19T01:51:16.708Z,3.9
2018-12-19T01:52:16.874Z,6.6
2018-12-19T01:53:16.738Z,9.5
2018-12-19T01:54:16.744Z,3.9
2018-12-19T01:55:16.747Z,1.8
2018-12-19T01:56:16.749Z,3.9
2018-12-19T01:57:16.758Z,9.5
2018-12-19T01:58:16.811Z,3.9
2018-12-19T01:59:16.756Z,9.5
2018-12-19T02:00:16.751Z,12.4
2018-12-19T02:01:16.756Z,3.9
2018-12-19T02:02:16.694Z,6.6
2018-12-19T02:03:16.813Z,6.6
2018-12-19T02:04:16.735Z,3.9
2018-12-19T02:05:16.742Z,6.6
2018-12-19T02:06:16.817Z,6.6
2018-12-19T02:07:16.738Z,6.6
2018-12-19T02:08:16.817Z,9.5
2018-12-19T02:09:16.743Z,3.9
2018-12-19T02:10:16.753Z,9.5
2018-12-19T02:11:16.739Z,6.6
2018-12-19T02:12:16.793Z,6.6
2018-12-19T02:13:16.751Z,12.4
2018-12-19T02:14:16.739Z,3.9
2018-12-19T02:15:16.812Z,12.4
2018-12-19T02:16:16.734Z,6.6
2018-12-19T02:17:16.743Z,6.6
2018-12-19T02:18:16.761Z,6.6
2018-12-19T02:19:16.700Z,9.5
2018-12-19T02:20:16.730Z,6.6
2018-12-19T02:21:16.734Z,1.8
2018-12-19T02:22:16.728Z,6.6
2018-12-19T02:23:16.873Z,9.5
2018-12-19T02:24:16.692Z,6.6
2018-12-19T02:25:16.733Z,3.9
2018-12-19T02:26:16.754Z,3.9
2018-12-19T02:27:16.736Z,0
2018-12-19T02:28:16.792Z,0
2018-12-19T02:29:16.755Z,0
2018-12-19T02:30:16.716Z,1.8
2018-12-19T02:31:16.747Z,6.6
2018-12-19T02:32:16.802Z,3.9
2018-12-19T02:33:16.795Z,6.6
2018-12-19T02:34:16.760Z,12.4
2018-12-19T02:35:16.760Z,3.9
2018-12-19T02:36:16.727Z,6.6
2018-12-19T02:37:16.737Z,9.5
2018-12-19T02:38:16.729Z,6.6
2018-12-19T02:39:16.729Z,6.6
2018-12-19T02:40:16.749Z,15.4
2018-12-19T02:41:16.724Z,12.4
2018-12-19T02:42:16.807Z,12.4
2018-12-19T02:43:16.721Z,12.4
2018-12-19T02:44:16.728Z,3.9
2018-12-19T02:45:16.757Z,15.4
2018-12-19T02:46:16.738Z,3.9
2018-12-19T02:47:16.729Z,3.9
2018-12-19T02:48:16.730Z,6.6
2018-12-19T02:49:16.730Z,3.9
2018-12-19T02:50:16.791Z,6.6
2018-12-19T02:51:16.669Z,6.6
2018-12-19T02:52:16.730Z,0
2018-12-19T02:53:16.726Z,1.8
2018-12-19T02:54:16.722Z,9.5
2018-12-19T02:55:16.797Z,3.9
2018-12-19T02:56:16.784Z,1.8
2018-12-19T02:57:16.668Z,3.9
2018-12-19T02:58:16.716Z,1.8
2018-12-19T02:59:16.739Z,9.5
2018-12-19T03:00:16.781Z,12.4
2018-12-19T03:01:16.706Z,9.5
2018-12-19T03:02:16.658Z,1.8
2018-12-19T03:03:16.710Z,0
2018-12-19T03:04:16.803Z,12.4
2018-12-19T03:05:16.766Z,3.9
2018-12-19T03:06:16.717Z,6.6
2018-12-19T03:07:16.680Z,1.8
2018-12-19T03:08:17.019Z,12.4
2018-12-19T03:09:16.720Z,3.9
2018-12-19T03:10:16.786Z,3.9
2018-12-19T03:11:16.707Z,9.5
2018-12-19T03:12:16.711Z,0
2018-12-19T03:13:16.661Z,3.9
2018-12-19T03:14:16.715Z,3.9
2018-12-19T03:15:16.842Z,0
2018-12-19T03:16:16.706Z,1.8
2018-12-19T03:17:16.710Z,1.8
2018-12-19T03:18:16.737Z,3.9
2018-12-19T03:19:16.712Z,9.5
2018-12-19T03:20:16.786Z,6.6
2018-12-19T03:21:16.702Z,3.9
2018-12-19T03:22:16.709Z,1.8
2018-12-19T03:23:16.711Z,0
2018-12-19T03:24:16.662Z,0
2018-12-19T03:25:16.800Z,1.8
2018-12-19T03:26:16.710Z,3.9
2018-12-19T03:27:16.705Z,6.6
2018-12-19T03:28:16.709Z,6.6
2018-12-19T03:29:16.659Z,6.6
2018-12-19T03:30:16.775Z,9.5
2018-12-19T03:31:16.711Z,3.9
2018-12-19T03:32:16.886Z,3.9
2018-12-19T03:33:26.617Z,3.9
2018-12-19T03:34:16.697Z,3.9
2018-12-19T03:35:16.675Z,6.6
2018-12-19T03:36:16.764Z,1.8
2018-12-19T03:37:16.697Z,6.6
2018-12-19T03:38:16.706Z,0
2018-12-19T03:39:16.768Z,0
2018-12-19T03:40:16.716Z,1.8
2018-12-19T03:41:16.704Z,1.8
2018-12-19T03:42:16.746Z,6.6
2018-12-19T03:43:16.766Z,0
2018-12-19T03:44:16.700Z,6.6
2018-12-19T03:45:21.518Z,6.6
2018-12-19T03:46:16.726Z,6.6
2018-12-19T03:47:16.697Z,3.9
2018-12-19T03:48:16.690Z,3.9
2018-12-19T03:49:16.759Z,3.9
2018-12-19T03:50:16.714Z,1.8
2018-12-19T03:51:16.648Z,3.9
2018-12-19T03:52:16.752Z,1.8
2018-12-19T03:53:16.688Z,0
2018-12-19T03:54:16.694Z,0
2018-12-19T03:55:16.771Z,1.8
2018-12-19T03:56:16.777Z,0
2018-12-19T03:57:16.658Z,0
2018-12-19T03:58:16.807Z,0
2018-12-19T03:59:16.748Z,0
2018-12-19T04:00:16.686Z,0
2018-12-19T04:01:16.796Z,0
2018-12-19T04:02:16.651Z,0
2018-12-19T04:03:16.689Z,0
2018-12-19T04:04:16.781Z,0
2018-12-19T04:05:16.702Z,0
2018-12-19T04:06:16.699Z,0
2018-12-19T04:07:16.698Z,0
2018-12-19T04:08:16.637Z,0
2018-12-19T04:09:16.689Z,0
2018-12-19T04:10:16.698Z,0
2018-12-19T04:11:16.783Z,0
2018-12-19T04:12:16.694Z,0
2018-12-19T04:13:16.631Z,0
2018-12-19T04:14:16.704Z,0
2018-12-19T04:15:16.697Z,0
2018-12-19T04:16:16.763Z,1.8
2018-12-19T04:17:16.686Z,0
2018-12-19T04:18:16.653Z,0
2018-12-19T04:19:16.627Z,0
2018-12-19T04:20:16.679Z,0
2018-12-19T04:21:16.748Z,0
2018-12-19T04:22:16.685Z,0
2018-12-19T04:23:16.681Z,0
2018-12-19T04:24:16.642Z,0
2018-12-19T04:25:16.688Z,0
2018-12-19T04:26:16.748Z,0
2018-12-19T04:27:16.666Z,0
2018-12-19T04:28:16.711Z,0
2018-12-19T04:29:16.697Z,0
2018-12-19T04:30:16.697Z,0
2018-12-19T04:31:16.677Z,0
2018-12-19T04:32:16.751Z,0
2018-12-19T04:33:16.690Z,0
2018-12-19T04:34:16.671Z,0
2018-12-19T04:35:16.629Z,0
2018-12-19T04:36:16.674Z,0
2018-12-19T04:37:16.742Z,0
2018-12-19T04:38:16.679Z,1.8
2018-12-19T04:39:16.744Z,0
2018-12-19T04:40:16.623Z,3.9
2018-12-19T04:41:16.766Z,1.8
2018-12-19T04:42:16.676Z,3.9
2018-12-19T04:43:16.806Z,0
2018-12-19T04:44:16.765Z,1.8
2018-12-19T04:45:16.715Z,3.9
2018-12-19T04:46:16.623Z,1.8
2018-12-19T04:47:16.748Z,1.8
2018-12-19T04:48:16.662Z,0
2018-12-19T04:49:16.666Z,0
2018-12-19T04:50:16.674Z,0
2018-12-19T04:51:17.246Z,0
2018-12-19T04:52:16.751Z,0
2018-12-19T04:53:16.941Z,0
2018-12-19T04:54:16.670Z,0
2018-12-19T04:55:16.654Z,0
2018-12-19T04:56:16.621Z,0
2018-12-19T04:57:16.663Z,0
2018-12-19T04:58:16.752Z,0
2018-12-19T04:59:16.656Z,0
2018-12-19T05:00:16.665Z,0
2018-12-19T05:01:16.730Z,0
2018-12-19T05:02:16.612Z,0
2018-12-19T05:03:16.775Z,0
2018-12-19T05:04:16.665Z,0
2018-12-19T05:05:16.677Z,0
2018-12-19T05:06:16.709Z,0
2018-12-19T05:07:16.641Z,0
2018-12-19T05:08:16.708Z,0
2018-12-19T05:09:16.660Z,0
2018-12-19T05:10:16.675Z,0
2018-12-19T05:11:16.666Z,0
2018-12-19T05:12:16.671Z,0
2018-12-19T05:13:16.694Z,0
2018-12-19T05:14:16.699Z,0
2018-12-19T05:15:16.657Z,0
2018-12-19T05:16:16.652Z,0
2018-12-19T05:17:16.658Z,0
2018-12-19T05:18:16.694Z,0
2018-12-19T05:19:16.613Z,0
2018-12-19T05:20:16.656Z,0
2018-12-19T05:21:16.667Z,0
2018-12-19T05:22:16.776Z,3.9
2018-12-19T05:23:16.671Z,0
2018-12-19T05:24:18.165Z,0
2018-12-19T05:25:16.664Z,0
2018-12-19T05:26:16.827Z,3.9
2018-12-19T05:27:16.661Z,1.8
2018-12-19T05:28:16.652Z,0
2018-12-19T05:29:16.603Z,0
2018-12-19T05:30:16.720Z,0
2018-12-19T05:31:16.652Z,0
2018-12-19T05:32:16.710Z,0
2018-12-19T05:33:16.643Z,0
2018-12-19T05:34:16.662Z,0
2018-12-19T05:35:16.605Z,0
2018-12-19T05:36:16.714Z,0
2018-12-19T05:37:16.651Z,0
2018-12-19T05:38:16.646Z,0
2018-12-19T05:39:16.649Z,0
2018-12-19T05:40:21.298Z,0
2018-12-19T05:41:16.703Z,0
2018-12-19T05:42:16.696Z,0
2018-12-19T05:43:16.656Z,0
2018-12-19T05:44:16.711Z,0
2018-12-19T05:45:16.612Z,0
2018-12-19T05:46:16.635Z,0
2018-12-19T05:47:16.647Z,0
2018-12-19T05:48:16.721Z,0
2018-12-19T05:49:16.653Z,0
2018-12-19T05:50:16.709Z,0
2018-12-19T05:51:16.615Z,0
2018-12-19T05:52:16.632Z,0
2018-12-19T05:53:16.704Z,0
2018-12-19T05:54:16.645Z,0
2018-12-19T05:55:16.640Z,0
2018-12-19T05:56:16.643Z,0
2018-12-19T05:57:16.671Z,0
2018-12-19T05:58:16.638Z,0
2018-12-19T05:59:16.634Z,0
2018-12-19T06:00:16.642Z,0
2018-12-19T06:01:16.632Z,0
2018-12-19T06:02:16.661Z,0
2018-12-19T06:03:16.628Z,0
2018-12-19T06:04:16.636Z,0
2018-12-19T06:05:16.638Z,0
2018-12-19T06:06:16.637Z,0
2018-12-19T06:07:16.654Z,0
2018-12-19T06:08:16.577Z,0
2018-12-19T06:09:16.638Z,0
2018-12-19T06:10:16.632Z,0
2018-12-19T06:11:16.633Z,0
2018-12-19T06:12:16.755Z,0
2018-12-19T06:13:16.584Z,0
2018-12-19T06:14:16.634Z,0
2018-12-19T06:15:16.633Z,0
2018-12-19T06:16:16.688Z,0
2018-12-19T06:17:16.705Z,0
2018-12-19T06:18:16.591Z,0
2018-12-19T06:19:16.571Z,0
2018-12-19T06:20:16.618Z,0
2018-12-19T06:21:16.622Z,0
2018-12-19T06:22:16.673Z,0
2018-12-19T06:23:16.618Z,0
2018-12-19T06:24:16.670Z,0
2018-12-19T06:25:16.651Z,0
2018-12-19T06:26:16.703Z,0
2018-12-19T06:27:16.718Z,0
2018-12-19T06:28:16.628Z,0
2018-12-19T06:29:16.656Z,0
2018-12-19T06:30:16.688Z,0
2018-12-19T06:31:16.612Z,0
2018-12-19T06:32:16.623Z,0
2018-12-19T06:33:16.614Z,0
2018-12-19T06:34:16.711Z,0
2018-12-19T06:35:16.587Z,0
2018-12-19T06:36:16.621Z,0
2018-12-19T06:37:16.621Z,0
2018-12-19T06:38:16.623Z,0
2018-12-19T06:39:16.679Z,0
2018-12-19T06:40:16.629Z,0
2018-12-19T06:41:16.708Z,0
2018-12-19T06:42:16.622Z,0
2018-12-19T06:43:16.607Z,0
2018-12-19T06:44:16.609Z,0
2018-12-19T06:45:16.576Z,0
2018-12-19T06:46:16.617Z,0
2018-12-19T06:47:16.618Z,0
2018-12-19T06:48:16.622Z,0
2018-12-19T06:49:16.617Z,0
2018-12-19T06:50:16.688Z,0
2018-12-19T06:51:16.557Z,0
2018-12-19T06:52:16.602Z,0
2018-12-19T06:53:16.612Z,0
2018-12-19T06:54:16.681Z,0
2018-12-19T06:55:16.620Z,0
2018-12-19T06:56:16.576Z,0
2018-12-19T06:57:16.608Z,0
2018-12-19T06:58:16.677Z,0
2018-12-19T06:59:16.622Z,0
2018-12-19T07:00:16.613Z,0
2018-12-19T07:01:16.604Z,0
2018-12-19T07:02:16.613Z,0
2018-12-19T07:03:16.601Z,0
2018-12-19T07:04:16.681Z,0
2018-12-19T07:05:16.608Z,0
2018-12-19T07:06:16.671Z,0
2018-12-19T07:07:16.566Z,0
2018-12-19T07:08:16.608Z,0
2018-12-19T07:09:16.667Z,0
2018-12-19T07:10:16.604Z,0
2018-12-19T07:11:16.589Z,0
2018-12-19T07:12:16.628Z,0
2018-12-19T07:13:16.558Z,0
2018-12-19T07:14:16.668Z,0
2018-12-19T07:15:16.594Z,0
2018-12-19T07:16:16.599Z,0
2018-12-19T07:17:16.677Z,0
2018-12-19T07:18:16.548Z,0
2018-12-19T07:19:16.665Z,0
2018-12-19T07:20:16.649Z,0
2018-12-19T07:21:16.600Z,0
2018-12-19T07:22:16.595Z,0
2018-12-19T07:23:16.600Z,0
2018-12-19T07:24:16.629Z,0
2018-12-19T07:25:16.588Z,3.9
2018-12-19T07:26:16.662Z,3.9
2018-12-19T07:27:16.597Z,6.6
2018-12-19T07:28:16.612Z,9.5
2018-12-19T07:29:16.569Z,6.6
2018-12-19T07:30:16.579Z,1.8
2018-12-19T07:31:16.654Z,6.6
2018-12-19T07:32:16.598Z,6.6
2018-12-19T07:33:16.586Z,3.9
2018-12-19T07:34:16.629Z,6.6
2018-12-19T07:35:16.540Z,6.6
2018-12-19T07:36:16.647Z,1.8
2018-12-19T07:37:16.574Z,3.9
2018-12-19T07:38:16.639Z,1.8
2018-12-19T07:39:16.565Z,6.6
2018-12-19T07:40:16.609Z,6.6
2018-12-19T07:41:16.578Z,3.9
2018-12-19T07:42:16.594Z,3.9
2018-12-19T07:43:16.589Z,3.9
2018-12-19T07:44:16.666Z,3.9
2018-12-19T07:45:16.553Z,9.5
2018-12-19T07:46:22.253Z,12.4
2018-12-19T07:47:16.581Z,3.9
2018-12-19T07:48:16.568Z,6.6
2018-12-19T07:49:16.655Z,12.4
2018-12-19T07:50:16.582Z,9.5
2018-12-19T07:51:16.523Z,6.6
2018-12-19T07:52:16.575Z,6.6
2018-12-19T07:53:16.640Z,15.4
2018-12-19T07:54:16.550Z,12.4
2018-12-19T07:55:16.566Z,6.6
2018-12-19T07:56:16.535Z,6.6
2018-12-19T07:57:16.590Z,6.6
2018-12-19T07:58:16.583Z,9.5
2018-12-19T07:59:16.567Z,12.4
2018-12-19T08:00:16.630Z,9.5
2018-12-19T08:01:17.410Z,9.5
2018-12-19T08:02:16.589Z,12.4
2018-12-19T08:03:16.557Z,6.6
2018-12-19T08:04:16.589Z,1.8
2018-12-19T08:05:16.581Z,6.6
2018-12-19T08:06:16.562Z,9.5
2018-12-19T08:07:16.569Z,3.9
2018-12-19T08:08:16.529Z,6.6
2018-12-19T08:09:16.567Z,6.6
2018-12-19T08:10:16.556Z,3.9
2018-12-19T08:11:16.635Z,3.9
2018-12-19T08:12:16.542Z,3.9
2018-12-19T08:13:16.622Z,9.5
2018-12-19T08:14:16.571Z,3.9
2018-12-19T08:15:16.566Z,6.6
2018-12-19T08:16:16.559Z,9.5
2018-12-19T08:17:16.571Z,6.6
2018-12-19T08:18:16.580Z,0
2018-12-19T08:19:16.577Z,0
2018-12-19T08:20:16.567Z,9.5
2018-12-19T08:21:16.561Z,0
2018-12-19T08:22:16.547Z,3.9
2018-12-19T08:23:16.659Z,3.9
2018-12-19T08:24:16.515Z,3.9
2018-12-19T08:25:16.570Z,6.6
2018-12-19T08:26:16.564Z,3.9
2018-12-19T08:27:16.574Z,0
2018-12-19T08:28:16.637Z,1.8
2018-12-19T08:29:16.571Z,3.9
2018-12-19T08:30:16.630Z,1.8
2018-12-19T08:31:16.534Z,1.8
2018-12-19T08:32:16.695Z,1.8
2018-12-19T08:33:16.562Z,0
2018-12-19T08:34:16.511Z,0
2018-12-19T08:35:16.523Z,0
2018-12-19T08:36:16.550Z,0
2018-12-19T08:37:16.625Z,0
2018-12-19T08:38:16.560Z,0
2018-12-19T08:39:16.548Z,0
2018-12-19T08:40:16.572Z,0
2018-12-19T08:41:16.548Z,0
2018-12-19T08:42:16.555Z,0
2018-12-19T08:43:16.544Z,0
2018-12-19T08:44:16.608Z,1.8
2018-12-19T08:45:16.509Z,6.6
2018-12-19T08:46:17.078Z,3.9
2018-12-19T08:47:16.562Z,9.5
2018-12-19T08:48:16.607Z,3.9
2018-12-19T08:49:16.551Z,6.6
2018-12-19T08:50:16.544Z,6.6
2018-12-19T08:51:16.505Z,9.5
2018-12-19T08:52:16.639Z,12.4
2018-12-19T08:53:16.550Z,12.4
2018-12-19T08:54:16.531Z,6.6
2018-12-19T08:55:16.550Z,12.4
2018-12-19T08:56:17.481Z,9.5
2018-12-19T08:57:16.609Z,3.9
2018-12-19T08:58:16.530Z,12.4
2018-12-19T08:59:16.547Z,21.3
2018-12-19T09:00:16.534Z,15.4
2018-12-19T09:01:16.621Z,12.4
2018-12-19T09:02:16.513Z,9.5
2018-12-19T09:03:16.549Z,12.4
2018-12-19T09:04:16.538Z,9.5
2018-12-19T09:05:16.553Z,9.5
2018-12-19T09:06:16.608Z,9.5
2018-12-19T09:07:16.492Z,6.6
2018-12-19T09:08:16.491Z,6.6
2018-12-19T09:09:16.608Z,9.5
2018-12-19T09:10:16.538Z,9.5
2018-12-19T09:11:16.536Z,6.6
2018-12-19T09:12:16.546Z,12.4
2018-12-19T09:13:16.504Z,3.9
2018-12-19T09:14:16.595Z,6.6
2018-12-19T09:15:16.534Z,12.4
2018-12-19T09:16:16.524Z,6.6
2018-12-19T09:17:16.610Z,9.5
2018-12-19T09:18:16.486Z,9.5
2018-12-19T09:19:16.595Z,15.4
2018-12-19T09:20:16.535Z,12.4
2018-12-19T09:21:16.532Z,9.5
2018-12-19T09:22:16.534Z,18.3
2018-12-19T09:23:16.558Z,15.4
2018-12-19T09:24:16.481Z,27.3
2018-12-19T09:25:16.595Z,12.4
2018-12-19T09:26:16.521Z,18.3
2018-12-19T09:27:16.595Z,21.3
2018-12-19T09:28:16.526Z,15.4
2018-12-19T09:29:16.533Z,18.3
2018-12-19T09:30:16.524Z,24.3
2018-12-19T09:31:16.530Z,15.4
2018-12-19T09:32:16.601Z,18.3
2018-12-19T09:33:16.513Z,18.3
2018-12-19T09:34:16.481Z,18.3
2018-12-19T09:35:16.547Z,27.3
2018-12-19T09:36:16.517Z,15.4
2018-12-19T09:37:16.574Z,18.3
2018-12-19T09:38:16.522Z,21.3
2018-12-19T09:39:16.529Z,18.3
2018-12-19T09:40:16.478Z,15.4
2018-12-19T09:41:16.533Z,18.3
2018-12-19T09:42:16.592Z,24.3
2018-12-19T09:43:16.500Z,24.3
2018-12-19T09:44:16.524Z,12.4
2018-12-19T09:45:16.497Z,18.3
2018-12-19T09:46:16.560Z,21.3
2018-12-19T09:47:16.523Z,21.3
2018-12-19T09:48:16.570Z,21.3
2018-12-19T09:49:16.509Z,24.3
2018-12-19T09:50:16.600Z,12.4
2018-12-19T09:51:16.489Z,15.4
2018-12-19T09:52:16.546Z,21.3
2018-12-19T09:53:16.505Z,9.5
2018-12-19T09:54:16.568Z,18.3
2018-12-19T09:55:16.572Z,12.4
2018-12-19T09:56:16.475Z,15.4
2018-12-19T09:57:16.475Z,12.4
2018-12-19T09:58:16.612Z,15.4
2018-12-19T09:59:16.576Z,18.3
2018-12-19T10:00:16.502Z,15.4
2018-12-19T10:01:16.501Z,9.5
2018-12-19T10:02:16.472Z,6.6
2018-12-19T10:03:16.565Z,9.5
2018-12-19T10:04:16.528Z,9.5
2018-12-19T10:05:16.513Z,12.4
2018-12-19T10:06:16.560Z,9.5
2018-12-19T10:07:16.445Z,12.4
2018-12-19T10:08:16.499Z,3.9
2018-12-19T10:09:17.488Z,12.4
2018-12-19T10:10:16.499Z,3.9
2018-12-19T10:11:21.105Z,9.5
2018-12-19T10:12:16.550Z,1.8
2018-12-19T10:13:16.523Z,3.9
2018-12-19T10:14:16.568Z,0
2018-12-19T10:15:16.487Z,0
2018-12-19T10:16:16.496Z,3.9
2018-12-19T10:17:16.490Z,6.6
2018-12-19T10:18:16.526Z,3.9
2018-12-19T10:19:16.564Z,3.9
2018-12-19T10:20:16.504Z,3.9
2018-12-19T10:21:16.509Z,3.9
2018-12-19T10:22:16.530Z,6.6
2018-12-19T10:23:16.446Z,3.9
2018-12-19T10:24:16.543Z,3.9
2018-12-19T10:25:16.542Z,1.8
2018-12-19T10:26:16.492Z,0
2018-12-19T10:27:16.515Z,3.9
2018-12-19T10:28:16.517Z,1.8
2018-12-19T10:29:16.513Z,0
2018-12-19T10:30:16.494Z,6.6
2018-12-19T10:31:16.500Z,3.9
2018-12-19T10:32:16.505Z,0
2018-12-19T10:33:17.212Z,0
2018-12-19T10:34:16.437Z,1.8
2018-12-19T10:35:16.485Z,3.9
2018-12-19T10:36:16.495Z,3.9
2018-12-19T10:37:16.524Z,0
2018-12-19T10:38:16.565Z,0
2018-12-19T10:39:16.496Z,0
2018-12-19T10:40:16.446Z,0
2018-12-19T10:41:16.543Z,0
2018-12-19T10:42:16.503Z,0
2018-12-19T10:43:16.486Z,0
2018-12-19T10:44:16.496Z,0
2018-12-19T10:45:16.521Z,0
2018-12-19T10:46:16.477Z,0
2018-12-19T10:47:16.474Z,0
2018-12-19T10:48:16.490Z,0
2018-12-19T10:49:16.480Z,0
2018-12-19T10:50:16.539Z,1.8
2018-12-19T10:51:16.499Z,0
2018-12-19T10:52:16.536Z,3.9
2018-12-19T10:53:16.468Z,0
2018-12-19T10:54:16.486Z,0
2018-12-19T10:55:16.615Z,1.8
2018-12-19T10:56:16.447Z,0
2018-12-19T10:57:16.482Z,1.8
2018-12-19T10:58:16.557Z,1.8
2018-12-19T10:59:16.553Z,0
2018-12-19T11:00:16.479Z,3.9
2018-12-19T11:01:16.537Z,1.8
2018-12-19T11:02:16.426Z,0
2018-12-19T11:03:16.479Z,0
2018-12-19T11:04:16.486Z,1.8
2018-12-19T11:05:16.532Z,1.8
2018-12-19T11:06:16.642Z,3.9
2018-12-19T11:07:16.423Z,1.8
2018-12-19T11:08:16.472Z,0
2018-12-19T11:09:16.490Z,0
2018-12-19T11:10:16.466Z,0
2018-12-19T11:11:16.539Z,0
2018-12-19T11:12:16.462Z,0
2018-12-19T11:13:16.432Z,0
2018-12-19T11:14:17.597Z,0
2018-12-19T11:15:16.468Z,0
2018-12-19T11:16:16.465Z,1.8
2018-12-19T11:17:16.462Z,0
2018-12-19T11:18:16.485Z,0
2018-12-19T11:19:16.451Z,0
2018-12-19T11:20:16.470Z,0
2018-12-19T11:21:16.470Z,0
2018-12-19T11:22:16.581Z,0
2018-12-19T11:23:16.437Z,1.8
2018-12-19T11:24:16.420Z,0
2018-12-19T11:25:16.487Z,0
2018-12-19T11:26:16.475Z,0
2018-12-19T11:27:16.555Z,0
2018-12-19T11:28:16.466Z,0
2018-12-19T11:29:16.416Z,0
2018-12-19T11:30:16.469Z,0
2018-12-19T11:31:16.459Z,0
2018-12-19T11:32:16.511Z,0
2018-12-19T11:33:16.447Z,1.8
2018-12-19T11:34:16.479Z,3.9
2018-12-19T11:35:16.424Z,0
2018-12-19T11:36:16.462Z,1.8
2018-12-19T11:37:16.461Z,1.8
2018-12-19T11:38:16.460Z,3.9
2018-12-19T11:39:16.521Z,3.9
2018-12-19T11:40:16.408Z,9.5
2018-12-19T11:41:16.462Z,9.5
2018-12-19T11:42:16.457Z,1.8
2018-12-19T11:43:16.504Z,6.6
2018-12-19T11:44:16.451Z,15.4
2018-12-19T11:45:16.478Z,9.5
2018-12-19T11:46:16.457Z,6.6
2018-12-19T11:47:16.447Z,3.9
2018-12-19T11:48:16.464Z,3.9
2018-12-19T11:49:16.446Z,1.8
2018-12-19T11:50:16.618Z,12.4
2018-12-19T11:51:16.398Z,3.9
2018-12-19T11:52:16.454Z,3.9
2018-12-19T11:53:16.436Z,6.6
2018-12-19T11:54:16.443Z,9.5
2018-12-19T11:55:16.512Z,6.6
2018-12-19T11:56:16.396Z,6.6
2018-12-19T11:57:16.451Z,1.8
2018-12-19T11:58:16.435Z,3.9
2018-12-19T11:59:16.461Z,1.8
2018-12-19T12:00:16.493Z,1.8
2018-12-19T12:01:16.505Z,6.6
2018-12-19T12:02:16.454Z,1.8
2018-12-19T12:03:16.437Z,9.5
2018-12-19T12:04:16.438Z,3.9
2018-12-19T12:05:16.534Z,0
2018-12-19T12:06:16.458Z,0
2018-12-19T12:07:16.400Z,6.6
2018-12-19T12:08:16.429Z,6.6
2018-12-19T12:09:16.499Z,0
2018-12-19T12:10:16.438Z,0
2018-12-19T12:11:16.439Z,3.9
2018-12-19T12:12:16.402Z,0
2018-12-19T12:13:16.398Z,0
2018-12-19T12:14:16.502Z,0
2018-12-19T12:15:16.443Z,0
2018-12-19T12:16:16.442Z,0
2018-12-19T12:17:16.430Z,0
2018-12-19T12:18:16.470Z,0
2018-12-19T12:19:16.436Z,0
2018-12-19T12:20:16.424Z,0
2018-12-19T12:21:16.413Z,0
2018-12-19T12:22:16.488Z,0
2018-12-19T12:23:16.395Z,0
2018-12-19T12:24:16.494Z,0
2018-12-19T12:25:16.425Z,0
2018-12-19T12:26:19.341Z,0
2018-12-19T12:27:16.641Z,0
2018-12-19T12:28:16.434Z,0
2018-12-19T12:29:16.437Z,0
2018-12-19T12:30:16.444Z,0
2018-12-19T12:31:16.487Z,0
2018-12-19T12:32:16.430Z,0
2018-12-19T12:33:16.417Z,0
2018-12-19T12:34:16.382Z,0
2018-12-19T12:35:16.426Z,0
2018-12-19T12:36:16.427Z,0
2018-12-19T12:37:16.458Z,0
2018-12-19T12:38:16.424Z,0
2018-12-19T12:39:16.500Z,0
2018-12-19T12:40:16.368Z,0
2018-12-19T12:41:16.443Z,0
2018-12-19T12:42:16.518Z,0
2018-12-19T12:43:16.424Z,0
2018-12-19T12:44:16.494Z,0
2018-12-19T12:45:16.370Z,0
2018-12-19T12:46:16.422Z,0
2018-12-19T12:47:16.423Z,0
2018-12-19T12:48:16.414Z,0
2018-12-19T12:49:16.416Z,0
2018-12-19T12:50:16.425Z,0
2018-12-19T12:51:16.371Z,0
2018-12-19T12:52:16.497Z,0
2018-12-19T12:53:17.357Z,0
2018-12-19T12:54:16.490Z,0
2018-12-19T12:55:16.404Z,0
2018-12-19T12:56:16.454Z,0
2018-12-19T12:57:16.391Z,0
2018-12-19T12:58:16.419Z,0
2018-12-19T12:59:16.421Z,0
2018-12-19T13:00:16.475Z,0
2018-12-19T13:01:16.381Z,3.9
2018-12-19T13:02:16.363Z,0
2018-12-19T13:03:16.411Z,3.9
2018-12-19T13:04:16.410Z,18.3
2018-12-19T13:05:16.464Z,0
2018-12-19T13:06:16.406Z,6.6
2018-12-19T13:07:16.363Z,0
2018-12-19T13:08:16.411Z,1.8
2018-12-19T13:09:16.417Z,1.8
2018-12-19T13:10:16.455Z,1.8
2018-12-19T13:11:16.403Z,0
2018-12-19T13:12:16.381Z,6.6
2018-12-19T13:13:16.396Z,6.6
2018-12-19T13:14:16.403Z,9.5
2018-12-19T13:15:16.468Z,6.6
2018-12-19T13:16:16.403Z,6.6
2018-12-19T13:17:16.484Z,6.6
2018-12-19T13:18:16.982Z,9.5
2018-12-19T13:19:16.403Z,6.6
2018-12-19T13:20:16.466Z,6.6
2018-12-19T13:21:16.411Z,6.6
2018-12-19T13:22:24.282Z,3.9
2018-12-19T13:23:19.465Z,3.9
2018-12-19T13:24:16.744Z,0
2018-12-19T13:25:16.349Z,0
2018-12-19T13:26:16.473Z,0
2018-12-19T13:27:16.472Z,0
2018-12-19T13:28:16.514Z,0
2018-12-19T13:29:16.357Z,0
2018-12-19T13:30:16.397Z,0
2018-12-19T13:31:16.403Z,0
2018-12-19T13:32:16.444Z,0
2018-12-19T13:33:16.412Z,0
2018-12-19T13:34:16.385Z,0
2018-12-19T13:35:16.384Z,0
2018-12-19T13:36:18.763Z,0
2018-12-19T13:37:16.344Z,0
2018-12-19T13:38:16.449Z,0
2018-12-19T13:39:16.958Z,0
2018-12-19T13:40:16.376Z,0
2018-12-19T13:41:16.392Z,0
2018-12-19T13:42:16.477Z,0
2018-12-19T13:43:16.371Z,0
2018-12-19T13:44:17.439Z,0
2018-12-19T13:45:16.339Z,0
2018-12-19T13:46:16.375Z,1.8
2018-12-19T13:47:16.391Z,0
2018-12-19T13:48:16.560Z,0
2018-12-19T13:49:16.381Z,0
2018-12-19T13:50:16.369Z,0
2018-12-19T13:51:16.451Z,0
2018-12-19T13:52:16.530Z,0
2018-12-19T13:53:20.333Z,0
2018-12-19T13:54:16.391Z,0
2018-12-19T13:55:16.370Z,0
2018-12-19T13:56:16.327Z,0
2018-12-19T13:57:16.406Z,0
2018-12-19T13:58:16.434Z,0
2018-12-19T13:59:16.476Z,0
2018-12-19T14:00:16.384Z,0
2018-12-19T14:01:16.335Z,0
2018-12-19T14:02:16.407Z,0
2018-12-19T14:03:16.361Z,0
2018-12-19T14:04:16.428Z,0
2018-12-19T14:05:16.450Z,1.8
2018-12-19T14:06:16.377Z,0
2018-12-19T14:07:16.327Z,0
2018-12-19T14:08:16.373Z,0
2018-12-19T14:09:16.389Z,0
2018-12-19T14:10:16.433Z,0
2018-12-19T14:11:16.375Z,0